Disclaimer

Please do not use the information listed here in-flight or in-navigation, as they are not provided to us by the airports but are provided by volunteers, so they might be outdated.

Search


Regions


Airport information page

Radio informations:
Tower (TWR) - 119.7 MHz
RDO - 6559 MHz

Airport informations:
Latitude: 04° 23' 54.51" N
Longitude: 018° 31' 07.63" E
Elevation: 1208 feet - 368 meters
Operating hours: 24 hour operations
Operating agency: Civil government, landing fees and diplomatic clearance may be required
Timezone: UTC+1
Fuel: Jet A1, without icing nhibitor.

100/130 MIL Spec, low lead, aviation gasoline (BLUE)

Runway information:
17/35 - 8530 x 148 feet< - >2600 x 45 meters

Recent METARs:
FEFF 131500Z VRB02KT 8000 NSC 31/24 Q1005 NOSIG
FEFF 131500Z VRB02KT 8000 NSC 31/24 Q1005 NOSIG
FEFF 131600Z VRB02KT 7000 NSC 31/25 Q1005 TEMPO 4000 FU

Airport on the map: